Time;durP1;ratioP1;P1;durP2;ratioP2;P2;SDS_P1;SDS_P2;PMS_P1;PMS_P2;Temp;Humidity;BMP_temperature;BMP_pressure;BME280_temperature;BME280_humidity;BME280_pressure;Samples;Min_cycle;Max_cycle;Signal;HPM_P1;HPM_P2
2021/01/29 06:01:34;;;;;;;;;;;;;;;;;;5135775;27;20352;-50
2021/01/29 06:04:19;;;;;;;17.67;4.10;;;;;;;;;;5125282;28;19958;-48
2021/01/29 06:06:51;;;;;;;10.25;0.80;;;;;;;;;;5124544;28;20508;-54
2021/01/29 06:09:27;;;;;;;30.40;4.00;;;;;;;;;;5124929;28;20090;-50
2021/01/29 06:11:53;;;;;;;13.30;2.05;;;;;;;;;;5126433;28;20440;-49
2021/01/29 06:14:28;;;;;;;0.43;0.22;;;;;;;;;;5126776;28;20094;-48
2021/01/29 06:17:07;;;;;;;13.25;1.73;;;;;;;;;;5124193;28;20030;-56
2021/01/29 06:19:52;;;;;;;9.68;1.80;;;;;;;;;;5124235;28;20026;-55
2021/01/29 06:22:27;;;;;;;17.05;2.28;;;;;;;;;;5123756;28;20461;-49
2021/01/29 06:24:58;;;;;;;12.38;2.25;;;;;;;;;;5124287;28;20031;-49
2021/01/29 06:27:29;;;;;;;5.15;3.45;;;;;;;;;;5124289;28;20466;-48
2021/01/29 06:30:04;;;;;;;13.07;3.35;;;;;;;;;;5125973;28;20035;-48
2021/01/29 06:32:43;;;;;;;0.03;0.03;;;;;;;;;;5127884;28;20034;-48
2021/01/29 06:35:44;;;;;;;15.23;1.55;;;;;;;;;;5121844;28;20484;-48
2021/01/29 06:38:15;;;;;;;29.95;3.75;;;;;;;;;;5024681;28;20034;-48
2021/01/29 06:40:59;;;;;;;2.72;0.82;;;;;;;;;;5022394;28;20148;-53
2021/01/29 06:43:40;;;;;;;31.40;3.58;;;;;;;;;;5019675;28;20133;-49
2021/01/29 06:46:24;;;;;;;19.45;1.00;;;;;;;;;;5018942;28;20045;-49
2021/01/29 06:49:04;;;;;;;11.82;1.88;;;;;;;;;;5019160;28;20034;-54
2021/01/29 06:51:49;;;;;;;4.93;0.73;;;;;;;;;;5020507;28;20042;-52
2021/01/29 06:54:33;;;;;;;10.70;2.00;;;;;;;;;;5008151;28;20548;-48
2021/01/29 06:57:10;;;;;;;27.08;3.38;;;;;;;;;;5022853;28;20514;-48
2021/01/29 06:59:42;;;;;;;10.40;2.28;;;;;;;;;;5023843;28;20086;-50
2021/01/29 07:02:20;;;;;;;15.98;4.45;;;;;;;;;;5013053;28;20572;-48
2021/01/29 07:05:05;;;;;;;12.85;2.58;;;;;;;;;;5001799;28;20076;-48
2021/01/29 07:07:49;;;;;;;21.87;3.20;;;;;;;;;;5005979;28;20529;-50
2021/01/29 07:10:41;;;;;;;0.10;0.00;;;;;;;;;;5006616;28;20056;-49
2021/01/29 07:13:32;;;;;;;9.98;1.55;;;;;;;;;;5003518;28;20088;-50
2021/01/29 07:16:06;;;;;;;1.55;1.33;;;;;;;;;;5026346;28;20033;-50
2021/01/29 07:18:51;;;;;;;8.80;2.15;;;;;;;;;;5026936;28;20491;-55
2021/01/29 07:21:17;;;;;;;23.73;5.10;;;;;;;;;;5014857;28;20510;-47
2021/01/29 07:23:52;;;;;;;11.57;1.58;;;;;;;;;;5030193;28;20099;-48
2021/01/29 07:26:37;;;;;;;15.82;2.45;;;;;;;;;;5030740;28;20553;-48
2021/01/29 07:29:19;;;;;;;3.58;0.45;;;;;;;;;;5022544;28;20100;-53
2021/01/29 07:31:45;;;;;;;13.52;2.15;;;;;;;;;;5026924;28;20427;-50
2021/01/29 07:34:38;;;;;;;17.33;2.25;;;;;;;;;;5027817;28;20022;-53
2021/01/29 07:37:13;;;;;;;6.30;1.73;;;;;;;;;;5026787;28;20049;-52
2021/01/29 07:39:40;;;;;;;33.03;6.22;;;;;;;;;;5028681;28;20017;-50
2021/01/29 07:42:18;;;;;;;14.60;2.45;;;;;;;;;;5028050;28;20112;-48
2021/01/29 07:44:50;;;;;;;0.88;0.60;;;;;;;;;;5026899;28;20038;-49
2021/01/29 07:47:19;;;;;;;5.18;1.10;;;;;;;;;;5027285;28;20037;-49
2021/01/29 07:49:51;;;;;;;7.10;0.70;;;;;;;;;;5050815;28;20048;-50
2021/01/29 07:52:23;;;;;;;6.60;1.90;;;;;;;;;;5082228;28;20024;-52
2021/01/29 07:54:49;;;;;;;6.75;1.17;;;;;;;;;;5090622;28;20089;-50
2021/01/29 07:57:28;;;;;;;1.25;0.30;;;;;;;;;;5088607;28;20112;-49
2021/01/29 07:59:54;;;;;;;11.43;2.63;;;;;;;;;;5096261;28;20047;-48
2021/01/29 08:02:35;;;;;;;8.10;2.00;;;;;;;;;;5110780;28;20106;-49
2021/01/29 08:05:18;;;;;;;4.28;2.28;;;;;;;;;;5110345;28;20381;-48
2021/01/29 08:07:50;;;;;;;20.63;2.90;;;;;;;;;;5117478;27;20019;-53
2021/01/29 08:10:43;;;;;;;5.20;2.05;;;;;;;;;;5111132;27;20511;-53
2021/01/29 08:13:28;;;;;;;4.38;0.45;;;;;;;;;;5106205;28;20412;-52
2021/01/29 08:16:01;;;;;;;8.73;1.80;;;;;;;;;;5108194;28;20024;-55
2021/01/29 08:18:30;;;;;;;6.22;1.38;;;;;;;;;;5107892;28;20273;-50
2021/01/29 08:20:56;;;;;;;1.33;0.30;;;;;;;;;;5109875;28;20039;-49
2021/01/29 08:23:36;;;;;;;3.55;1.00;;;;;;;;;;5110998;28;20024;-48
2021/01/29 08:26:02;;;;;;;6.63;1.73;;;;;;;;;;5108256;28;20081;-49
2021/01/29 08:28:28;;;;;;;15.50;3.58;;;;;;;;;;5092437;28;20034;-50
2021/01/29 08:31:12;;;;;;;6.43;1.10;;;;;;;;;;5108005;28;20075;-51
2021/01/29 08:34:28;;;;;;;10.52;2.17;;;;;;;;;;5094850;28;20036;-48
2021/01/29 08:37:13;;;;;;;9.95;3.60;;;;;;;;;;5086543;28;20042;-50
2021/01/29 08:39:58;;;;;;;9.68;2.28;;;;;;;;;;5109317;28;20031;-48
2021/01/29 08:42:33;;;;;;;4.50;0.80;;;;;;;;;;5107354;28;20505;-48
2021/01/29 08:45:21;;;;;;;19.77;2.63;;;;;;;;;;5106916;28;20036;-49
2021/01/29 08:47:56;;;;;;;3.85;0.82;;;;;;;;;;5107826;28;20067;-49
2021/01/29 08:50:40;;;;;;;10.53;3.57;;;;;;;;;;5109300;28;20401;-52
2021/01/29 08:53:25;;;;;;;4.07;1.40;;;;;;;;;;5107568;28;20278;-49
2021/01/29 08:56:10;;;;;;;12.90;1.75;;;;;;;;;;5107757;28;20054;-52
2021/01/29 08:58:46;;;;;;;12.40;2.78;;;;;;;;;;5105323;28;20560;-51
2021/01/29 09:01:27;;;;;;;9.23;1.13;;;;;;;;;;5109048;27;20043;-53
2021/01/29 09:03:57;;;;;;;3.75;0.90;;;;;;;;;;5105804;28;20026;-52
2021/01/29 09:06:26;;;;;;;3.92;3.35;;;;;;;;;;5108853;28;20947;-55
2021/01/29 09:09:00;;;;;;;6.13;0.73;;;;;;;;;;5106247;28;20058;-53
2021/01/29 09:11:29;;;;;;;4.00;1.10;;;;;;;;;;5107790;28;20590;-50
2021/01/29 09:13:58;;;;;;;8.20;1.38;;;;;;;;;;5106765;28;20055;-50
2021/01/29 09:16:29;;;;;;;11.07;1.25;;;;;;;;;;5104265;28;20022;-50
2021/01/29 09:19:15;;;;;;;5.47;1.55;;;;;;;;;;5107176;28;20065;-55
2021/01/29 09:21:59;;;;;;;2.60;0.40;;;;;;;;;;5108456;28;20578;-53
2021/01/29 09:24:28;;;;;;;7.55;1.52;;;;;;;;;;5106487;28;20035;-53
2021/01/29 09:27:07;;;;;;;5.82;3.33;;;;;;;;;;5106760;28;20555;-53
2021/01/29 09:29:37;;;;;;;27.20;4.68;;;;;;;;;;5110937;27;20081;-57
2021/01/29 09:32:09;;;;;;;17.55;1.40;;;;;;;;;;5106449;28;20030;-54
2021/01/29 09:34:43;;;;;;;16.70;3.15;;;;;;;;;;5106622;28;20444;-52
2021/01/29 09:37:14;;;;;;;9.88;2.33;;;;;;;;;;5106499;28;20031;-50
2021/01/29 09:39:57;;;;;;;5.18;0.22;;;;;;;;;;5108735;28;20051;-51
2021/01/29 09:42:41;;;;;;;16.13;1.33;;;;;;;;;;5108023;28;20492;-49
2021/01/29 09:45:15;;;;;;;9.40;1.52;;;;;;;;;;5108681;28;20020;-54
2021/01/29 09:47:43;;;;;;;4.70;0.85;;;;;;;;;;5109486;28;20023;-53
2021/01/29 09:50:10;;;;;;;2.45;1.13;;;;;;;;;;5110816;28;20039;-51
2021/01/29 09:52:39;;;;;;;9.40;6.38;;;;;;;;;;5109122;28;20032;-51
2021/01/29 09:55:16;;;;;;;5.15;2.78;;;;;;;;;;5108783;28;20757;-52
2021/01/29 09:57:47;;;;;;;21.77;4.05;;;;;;;;;;5108738;28;20020;-58
2021/01/29 10:00:14;;;;;;;3.15;0.65;;;;;;;;;;5106868;28;20089;-50
2021/01/29 10:02:56;;;;;;;2.03;0.50;;;;;;;;;;5109757;28;20016;-50
2021/01/29 10:05:28;;;;;;;16.60;1.80;;;;;;;;;;5109277;28;20036;-52
2021/01/29 10:08:09;;;;;;;9.55;3.28;;;;;;;;;;5097016;28;20066;-50
2021/01/29 10:10:50;;;;;;;9.68;2.45;;;;;;;;;;5108438;28;20050;-52
2021/01/29 10:13:16;;;;;;;25.30;3.45;;;;;;;;;;5105542;28;20031;-51
2021/01/29 10:15:45;;;;;;;10.10;1.48;;;;;;;;;;5108812;28;20081;-49
2021/01/29 10:18:19;;;;;;;13.60;1.88;;;;;;;;;;5106891;28;20036;-54
2021/01/29 10:20:45;;;;;;;9.50;1.23;;;;;;;;;;5106480;28;20107;-52
2021/01/29 10:23:21;;;;;;;3.05;1.83;;;;;;;;;;5109989;28;20508;-52
2021/01/29 10:26:09;;;;;;;6.45;1.42;;;;;;;;;;5105094;28;20024;-51
2021/01/29 10:28:41;;;;;;;2.65;1.33;;;;;;;;;;5104930;28;20061;-50
2021/01/29 10:31:08;;;;;;;8.35;1.15;;;;;;;;;;5103463;28;20046;-52
2021/01/29 10:33:37;;;;;;;9.50;2.28;;;;;;;;;;5091673;28;20396;-49
2021/01/29 10:36:06;;;;;;;7.40;2.58;;;;;;;;;;5108569;28;20024;-50
2021/01/29 10:38:33;;;;;;;8.25;2.80;;;;;;;;;;5111222;28;20076;-49
2021/01/29 10:41:11;;;;;;;2.53;1.08;;;;;;;;;;5110215;27;20526;-51
2021/01/29 10:43:41;;;;;;;8.48;1.27;;;;;;;;;;5109365;28;20050;-49
2021/01/29 10:46:23;;;;;;;13.60;2.83;;;;;;;;;;5108701;28;20408;-50
2021/01/29 10:49:07;;;;;;;7.90;0.95;;;;;;;;;;5110241;28;20043;-50
2021/01/29 10:51:42;;;;;;;5.07;0.70;;;;;;;;;;5095448;28;20028;-49
2021/01/29 10:54:09;;;;;;;20.83;3.20;;;;;;;;;;5110714;27;20104;-52
2021/01/29 10:56:45;;;;;;;13.15;2.33;;;;;;;;;;5113745;28;20063;-50
2021/01/29 10:59:17;;;;;;;0.43;0.43;;;;;;;;;;5110305;28;20338;-53
2021/01/29 11:01:47;;;;;;;19.98;3.75;;;;;;;;;;5117402;27;20042;-50
2021/01/29 11:04:19;;;;;;;18.88;4.00;;;;;;;;;;5108985;28;20016;-50
2021/01/29 11:06:48;;;;;;;1.65;0.82;;;;;;;;;;5108010;28;20567;-51
2021/01/29 11:09:17;;;;;;;28.58;2.65;;;;;;;;;;5109805;28;20027;-50
2021/01/29 11:11:46;;;;;;;15.13;2.30;;;;;;;;;;5111939;28;20030;-50
2021/01/29 11:14:18;;;;;;;8.40;2.53;;;;;;;;;;5110442;28;20016;-49
2021/01/29 11:17:02;;;;;;;15.70;2.53;;;;;;;;;;5108844;28;20409;-51
2021/01/29 11:19:34;;;;;;;3.05;0.80;;;;;;;;;;5107140;27;20059;-49
2021/01/29 11:22:12;;;;;;;4.68;2.75;;;;;;;;;;5108649;28;20170;-49
2021/01/29 11:25:08;;;;;;;8.82;1.00;;;;;;;;;;5108608;28;20504;-53
2021/01/29 11:27:35;;;;;;;7.30;2.20;;;;;;;;;;5028386;28;20026;-49
2021/01/29 11:30:20;;;;;;;7.30;3.25;;;;;;;;;;5028598;28;20033;-50
2021/01/29 11:33:04;;;;;;;14.80;4.60;;;;;;;;;;5028447;28;20037;-49
2021/01/29 11:35:39;;;;;;;8.50;1.90;;;;;;;;;;5029232;28;20025;-50
2021/01/29 11:38:23;;;;;;;6.18;1.95;;;;;;;;;;5029507;28;20041;-52
2021/01/29 11:40:55;;;;;;;5.38;1.52;;;;;;;;;;5044813;28;20068;-53
2021/01/29 11:43:29;;;;;;;5.75;2.67;;;;;;;;;;5029120;28;20025;-50
2021/01/29 11:45:59;;;;;;;0.35;0.32;;;;;;;;;;5027767;28;20052;-52
2021/01/29 11:48:31;;;;;;;26.13;3.80;;;;;;;;;;5028344;28;20025;-53
2021/01/29 11:51:00;;;;;;;14.93;1.65;;;;;;;;;;5028251;28;20597;-50
2021/01/29 11:53:32;;;;;;;1.35;0.63;;;;;;;;;;5028525;28;20657;-49
2021/01/29 11:56:02;;;;;;;8.57;2.05;;;;;;;;;;5028350;28;20036;-48
2021/01/29 11:58:37;;;;;;;2.17;0.55;;;;;;;;;;5028564;28;20084;-50
2021/01/29 12:01:15;;;;;;;3.25;1.00;;;;;;;;;;5028713;28;20132;-48
2021/01/29 12:03:44;;;;;;;43.65;4.13;;;;;;;;;;5060413;28;20038;-50
2021/01/29 12:06:19;;;;;;;12.95;1.60;;;;;;;;;;5110401;28;20020;-53
2021/01/29 12:08:56;;;;;;;10.80;1.88;;;;;;;;;;5110118;28;20027;-53
2021/01/29 12:11:42;;;;;;;5.72;2.08;;;;;;;;;;5111005;28;20042;-49
2021/01/29 12:14:15;;;;;;;4.18;2.47;;;;;;;;;;5111832;28;20035;-50
2021/01/29 12:16:41;;;;;;;11.25;0.52;;;;;;;;;;5108972;28;20038;-49
2021/01/29 12:19:08;;;;;;;0.30;0.30;;;;;;;;;;5110741;28;20057;-53
2021/01/29 12:21:37;;;;;;;10.68;2.67;;;;;;;;;;5079315;28;20461;-48
2021/01/29 12:24:06;;;;;;;4.45;1.50;;;;;;;;;;5110621;28;20111;-50
2021/01/29 12:26:36;;;;;;;3.45;1.00;;;;;;;;;;5108207;28;20164;-55
2021/01/29 12:29:25;;;;;;;6.88;0.73;;;;;;;;;;5109542;28;20036;-52
2021/01/29 12:31:55;;;;;;;21.35;1.85;;;;;;;;;;5096985;28;20061;-49
2021/01/29 12:34:41;;;;;;;2.20;0.65;;;;;;;;;;5109076;28;20024;-50
2021/01/29 12:37:07;;;;;;;22.42;2.90;;;;;;;;;;5107745;28;20062;-49
2021/01/29 12:39:36;;;;;;;7.07;1.15;;;;;;;;;;5109996;28;20477;-50
2021/01/29 12:42:24;;;;;;;14.80;2.33;;;;;;;;;;5107255;28;20055;-48
2021/01/29 12:44:54;;;;;;;1.02;0.65;;;;;;;;;;5108624;28;20043;-48
2021/01/29 12:47:27;;;;;;;3.85;1.55;;;;;;;;;;5110353;28;20152;-51
2021/01/29 12:50:02;;;;;;;13.73;3.10;;;;;;;;;;5108621;28;20028;-50
2021/01/29 12:52:42;;;;;;;5.53;1.45;;;;;;;;;;5109482;28;20023;-49
2021/01/29 12:55:14;;;;;;;16.15;2.45;;;;;;;;;;5091360;28;20028;-49
2021/01/29 12:57:40;;;;;;;2.78;0.60;;;;;;;;;;5109410;28;20484;-51
2021/01/29 13:00:28;;;;;;;2.20;0.98;;;;;;;;;;5108874;28;20054;-48
2021/01/29 13:02:54;;;;;;;4.97;1.08;;;;;;;;;;5107348;28;20668;-49
2021/01/29 13:05:20;;;;;;;9.65;0.95;;;;;;;;;;5109937;28;20106;-52
2021/01/29 13:07:57;;;;;;;13.50;2.10;;;;;;;;;;5108172;28;20024;-50
2021/01/29 13:10:35;;;;;;;2.53;2.33;;;;;;;;;;5106792;28;20081;-49
2021/01/29 13:13:20;;;;;;;8.80;2.50;;;;;;;;;;5108236;28;20027;-51
2021/01/29 13:15:55;;;;;;;27.23;2.22;;;;;;;;;;5107929;28;20039;-53
2021/01/29 13:18:21;;;;;;;7.70;1.63;;;;;;;;;;5108274;28;20015;-50
2021/01/29 13:20:49;;;;;;;25.95;1.10;;;;;;;;;;5108108;28;20402;-51
2021/01/29 13:23:23;;;;;;;15.70;0.85;;;;;;;;;;5109970;28;20040;-50
2021/01/29 13:26:16;;;;;;;3.40;1.13;;;;;;;;;;5108139;28;20464;-48
2021/01/29 13:29:08;;;;;;;4.25;1.20;;;;;;;;;;5102899;28;20076;-48
2021/01/29 13:31:38;;;;;;;14.00;1.85;;;;;;;;;;5102171;28;20617;-53
2021/01/29 13:34:13;;;;;;;8.65;2.17;;;;;;;;;;5106464;28;20023;-51
2021/01/29 13:36:42;;;;;;;5.43;1.60;;;;;;;;;;5107303;28;20165;-48
2021/01/29 13:39:16;;;;;;;0.15;0.15;;;;;;;;;;5107946;28;20016;-49
2021/01/29 13:41:45;;;;;;;3.53;1.00;;;;;;;;;;5108150;28;20503;-52
2021/01/29 13:44:20;;;;;;;6.57;0.65;;;;;;;;;;5109122;28;20488;-48
2021/01/29 13:46:51;;;;;;;2.38;0.98;;;;;;;;;;5105998;28;20034;-50
2021/01/29 13:49:32;;;;;;;0.10;0.10;;;;;;;;;;5105566;28;20066;-51
2021/01/29 13:51:59;;;;;;;6.88;1.08;;;;;;;;;;5107332;28;20032;-50
2021/01/29 13:54:34;;;;;;;3.53;0.68;;;;;;;;;;5105776;28;20101;-49
2021/01/29 13:57:02;;;;;;;1.02;0.35;;;;;;;;;;5107290;28;23654;-49
2021/01/29 13:59:39;;;;;;;1.63;0.38;;;;;;;;;;5107927;28;20127;-62
2021/01/29 14:02:21;;;;;;;0.63;0.20;;;;;;;;;;5104022;28;20040;-48
2021/01/29 14:04:51;;;;;;;2.50;1.02;;;;;;;;;;5103748;28;20062;-49
2021/01/29 14:07:17;;;;;;;12.38;2.67;;;;;;;;;;5105224;28;20027;-49
2021/01/29 14:09:43;;;;;;;1.15;0.40;;;;;;;;;;5106844;28;20035;-48
2021/01/29 14:12:21;;;;;;;2.10;0.35;;;;;;;;;;5108398;28;20031;-52
2021/01/29 14:14:54;;;;;;;0.30;0.30;;;;;;;;;;5108572;28;20024;-49
2021/01/29 14:17:46;;;;;;;3.05;1.00;;;;;;;;;;5111175;28;20461;-59
2021/01/29 14:20:12;;;;;;;1.58;0.35;;;;;;;;;;5023692;28;20030;-49
2021/01/29 14:22:53;;;;;;;4.47;1.20;;;;;;;;;;5023241;28;20459;-48
2021/01/29 14:25:41;;;;;;;2.70;0.35;;;;;;;;;;5024076;28;20056;-48
2021/01/29 14:28:09;;;;;;;3.30;0.82;;;;;;;;;;5025772;28;20113;-48
2021/01/29 14:30:38;;;;;;;1.05;0.93;;;;;;;;;;5022383;28;20161;-49
2021/01/29 14:33:23;;;;;;;0.00;0.00;;;;;;;;;;5022418;28;20029;-52
2021/01/29 14:36:07;;;;;;;3.92;0.75;;;;;;;;;;5026752;28;20585;-48
2021/01/29 14:38:33;;;;;;;1.33;0.47;;;;;;;;;;5015568;28;20049;-53
2021/01/29 14:41:16;;;;;;;11.85;2.00;;;;;;;;;;5021242;28;20123;-48
2021/01/29 14:43:46;;;;;;;25.50;1.65;;;;;;;;;;5023244;28;20069;-50
2021/01/29 14:46:31;;;;;;;4.18;0.63;;;;;;;;;;5020727;28;20021;-53
2021/01/29 14:49:06;;;;;;;9.75;2.70;;;;;;;;;;5021025;28;20021;-48
2021/01/29 14:51:50;;;;;;;9.40;0.93;;;;;;;;;;5021821;28;20077;-51
2021/01/29 14:54:18;;;;;;;0.15;0.10;;;;;;;;;;5022224;28;20037;-51
2021/01/29 14:56:44;;;;;;;23.40;2.15;;;;;;;;;;5051928;28;20032;-48
2021/01/29 14:59:17;;;;;;;1.70;0.88;;;;;;;;;;5112538;28;20028;-50
2021/01/29 15:01:49;;;;;;;11.77;1.98;;;;;;;;;;5111083;28;20023;-54
2021/01/29 15:04:27;;;;;;;7.47;2.20;;;;;;;;;;5105379;28;20038;-50
2021/01/29 15:06:59;;;;;;;8.07;2.35;;;;;;;;;;5108433;28;20028;-54
2021/01/29 15:09:29;;;;;;;5.47;0.28;;;;;;;;;;5111708;28;20493;-53
2021/01/29 15:11:56;;;;;;;3.03;2.47;;;;;;;;;;5110520;28;20031;-54
2021/01/29 15:14:41;;;;;;;1.92;0.45;;;;;;;;;;5113557;28;20020;-53
2021/01/29 15:17:26;;;;;;;0.60;0.55;;;;;;;;;;5111732;28;20035;-59
2021/01/29 15:20:05;;;;;;;0.50;0.50;;;;;;;;;;5110279;28;20023;-54
2021/01/29 15:22:33;;;;;;;0.10;0.10;;;;;;;;;;5109425;28;20468;-54
2021/01/29 15:25:18;;;;;;;0.43;0.43;;;;;;;;;;5108436;28;20043;-50
2021/01/29 15:27:44;;;;;;;0.30;0.30;;;;;;;;;;5110750;28;20024;-52
2021/01/29 15:30:13;;;;;;;0.00;0.00;;;;;;;;;;5111073;28;20302;-57
2021/01/29 15:32:43;;;;;;;3.58;1.17;;;;;;;;;;5111700;28;20371;-52
2021/01/29 15:35:09;;;;;;;7.93;0.80;;;;;;;;;;5112439;28;20027;-51
2021/01/29 15:37:48;;;;;;;3.92;0.65;;;;;;;;;;5111530;28;20027;-54
2021/01/29 15:40:26;;;;;;;4.22;2.08;;;;;;;;;;5108753;28;20026;-54
2021/01/29 15:42:53;;;;;;;0.10;0.10;;;;;;;;;;5111239;28;20031;-52
2021/01/29 15:45:24;;;;;;;1.75;0.65;;;;;;;;;;5111924;28;20399;-51
2021/01/29 15:47:56;;;;;;;1.70;1.58;;;;;;;;;;5109701;27;20059;-50
2021/01/29 15:50:41;;;;;;;2.10;0.90;;;;;;;;;;5093259;28;20123;-54
2021/01/29 15:53:07;;;;;;;5.78;0.30;;;;;;;;;;5112550;28;20484;-50
2021/01/29 15:55:38;;;;;;;0.32;0.32;;;;;;;;;;5109576;28;20034;-49
2021/01/29 15:58:05;;;;;;;1.52;1.30;;;;;;;;;;5108814;28;20499;-49
2021/01/29 16:00:37;;;;;;;0.20;0.20;;;;;;;;;;5107318;28;20044;-54
2021/01/29 16:03:05;;;;;;;0.10;0.10;;;;;;;;;;5106439;28;20531;-50
2021/01/29 16:05:47;;;;;;;0.32;0.20;;;;;;;;;;5107648;28;20034;-49
2021/01/29 16:08:28;;;;;;;1.85;0.22;;;;;;;;;;5108644;28;20110;-53
2021/01/29 16:11:10;;;;;;;0.00;0.00;;;;;;;;;;5105966;28;20051;-52
2021/01/29 16:13:37;;;;;;;0.90;0.90;;;;;;;;;;5106686;28;20073;-49
2021/01/29 16:16:05;;;;;;;0.77;0.77;;;;;;;;;;5106905;28;20027;-53
2021/01/29 16:18:31;;;;;;;0.00;0.00;;;;;;;;;;5108302;28;20581;-54
2021/01/29 16:21:03;;;;;;;5.13;0.70;;;;;;;;;;5109624;28;20030;-52
2021/01/29 16:23:30;;;;;;;2.20;1.10;;;;;;;;;;5110571;28;20028;-50
2021/01/29 16:26:03;;;;;;;0.20;0.20;;;;;;;;;;5087899;28;20397;-49
2021/01/29 16:28:29;;;;;;;0.10;0.10;;;;;;;;;;5108212;28;20147;-52
2021/01/29 16:31:03;;;;;;;0.00;0.00;;;;;;;;;;5107870;28;20080;-53
2021/01/29 16:33:29;;;;;;;0.00;0.00;;;;;;;;;;5105308;28;20023;-50
2021/01/29 16:35:56;;;;;;;7.82;2.35;;;;;;;;;;5108210;28;20110;-51
2021/01/29 16:38:25;;;;;;;9.55;0.75;;;;;;;;;;5111087;28;20039;-50
2021/01/29 16:40:51;;;;;;;0.00;0.00;;;;;;;;;;5107328;28;20035;-52
2021/01/29 16:43:23;;;;;;;0.00;0.00;;;;;;;;;;5108219;28;20499;-52
2021/01/29 16:45:52;;;;;;;1.13;0.20;;;;;;;;;;5104277;28;20106;-57
2021/01/29 16:48:32;;;;;;;0.10;0.10;;;;;;;;;;5107909;28;20496;-49
2021/01/29 16:51:03;;;;;;;0.20;0.20;;;;;;;;;;5105082;28;20046;-49
2021/01/29 16:53:31;;;;;;;0.00;0.00;;;;;;;;;;5111145;28;20016;-51
2021/01/29 16:56:01;;;;;;;0.00;0.00;;;;;;;;;;5108518;28;20032;-52
2021/01/29 16:58:31;;;;;;;2.85;0.88;;;;;;;;;;5102466;28;20043;-49
2021/01/29 17:01:08;;;;;;;0.10;0.10;;;;;;;;;;5108815;28;20031;-50
2021/01/29 17:03:38;;;;;;;0.00;0.00;;;;;;;;;;5107174;28;20023;-56
2021/01/29 17:06:06;;;;;;;0.00;0.00;;;;;;;;;;5107134;28;20530;-60
2021/01/29 17:08:33;;;;;;;0.00;0.00;;;;;;;;;;5109864;28;20023;-59
2021/01/29 17:11:10;;;;;;;0.00;0.00;;;;;;;;;;5104410;28;20098;-50
2021/01/29 17:13:37;;;;;;;0.00;0.00;;;;;;;;;;5105898;28;20253;-48
2021/01/29 17:16:03;;;;;;;0.00;0.00;;;;;;;;;;5108664;28;20047;-49
2021/01/29 17:18:29;;;;;;;0.00;0.00;;;;;;;;;;5109970;27;20069;-52
2021/01/29 17:20:59;;;;;;;0.20;0.20;;;;;;;;;;5107356;28;20024;-49
2021/01/29 17:23:26;;;;;;;0.08;0.08;;;;;;;;;;5110226;28;20023;-49
2021/01/29 17:26:04;;;;;;;0.00;0.00;;;;;;;;;;5108911;28;20041;-52
2021/01/29 17:28:32;;;;;;;0.10;0.10;;;;;;;;;;5107797;28;20107;-53
2021/01/29 17:30:58;;;;;;;0.17;0.17;;;;;;;;;;5109488;28;20412;-50
2021/01/29 17:33:26;;;;;;;0.15;0.15;;;;;;;;;;5109928;28;20472;-51
2021/01/29 17:35:55;;;;;;;0.45;0.40;;;;;;;;;;5104641;28;20392;-48
2021/01/29 17:38:26;;;;;;;0.10;0.10;;;;;;;;;;5103166;28;20480;-50
2021/01/29 17:40:57;;;;;;;0.73;0.73;;;;;;;;;;5099596;28;20046;-50
2021/01/29 17:43:38;;;;;;;0.85;0.85;;;;;;;;;;5103931;28;20574;-51
2021/01/29 17:46:12;;;;;;;3.30;3.10;;;;;;;;;;5103902;28;20028;-64
2021/01/29 17:48:40;;;;;;;0.05;0.05;;;;;;;;;;5098693;28;20023;-50
2021/01/29 17:51:24;;;;;;;0.10;0.10;;;;;;;;;;5099713;28;20031;-51
2021/01/29 17:54:01;;;;;;;0.20;0.20;;;;;;;;;;5107930;28;20096;-49
2021/01/29 17:56:40;;;;;;;0.10;0.10;;;;;;;;;;5106916;28;20027;-50
2021/01/29 17:59:06;;;;;;;0.00;0.00;;;;;;;;;;5107373;28;20032;-51
2021/01/29 18:01:40;;;;;;;0.00;0.00;;;;;;;;;;5110054;28;20042;-53
2021/01/29 18:04:08;;;;;;;0.00;0.00;;;;;;;;;;5110429;28;20028;-49
2021/01/29 18:06:40;;;;;;;0.10;0.10;;;;;;;;;;5109855;28;20110;-51
2021/01/29 18:09:21;;;;;;;3.20;1.08;;;;;;;;;;5109700;28;20023;-52
2021/01/29 18:11:54;;;;;;;0.10;0.10;;;;;;;;;;5107918;28;20515;-52
2021/01/29 18:14:21;;;;;;;1.25;0.45;;;;;;;;;;5107271;28;20103;-55
2021/01/29 18:16:47;;;;;;;0.00;0.00;;;;;;;;;;5110895;28;20027;-53
2021/01/29 18:19:16;;;;;;;0.00;0.00;;;;;;;;;;5109677;28;20016;-53
2021/01/29 18:21:44;;;;;;;0.00;0.00;;;;;;;;;;5109977;28;20034;-51
2021/01/29 18:24:12;;;;;;;0.00;0.00;;;;;;;;;;5110610;28;20027;-49
2021/01/29 18:26:39;;;;;;;0.08;0.08;;;;;;;;;;5110553;28;20036;-54
2021/01/29 18:29:07;;;;;;;0.00;0.00;;;;;;;;;;5110746;28;20080;-56
2021/01/29 18:31:35;;;;;;;0.00;0.00;;;;;;;;;;5109925;28;20035;-52
2021/01/29 18:34:02;;;;;;;0.03;0.03;;;;;;;;;;5091255;28;20497;-52
2021/01/29 18:36:29;;;;;;;3.03;0.93;;;;;;;;;;5110598;28;20024;-54
2021/01/29 18:38:56;;;;;;;0.20;0.20;;;;;;;;;;5110445;28;20042;-53
2021/01/29 18:41:22;;;;;;;0.13;0.13;;;;;;;;;;5110236;28;20419;-51
2021/01/29 18:43:48;;;;;;;0.00;0.00;;;;;;;;;;5110138;28;20471;-51
2021/01/29 18:46:14;;;;;;;0.00;0.00;;;;;;;;;;5110361;28;20027;-53
2021/01/29 18:48:40;;;;;;;0.00;0.00;;;;;;;;;;5110349;28;20028;-52
2021/01/29 18:51:06;;;;;;;0.00;0.00;;;;;;;;;;5101919;28;20100;-51
2021/01/29 18:53:33;;;;;;;0.00;0.00;;;;;;;;;;5111031;28;20024;-52
2021/01/29 18:55:59;;;;;;;0.10;0.10;;;;;;;;;;5110303;28;20148;-49
2021/01/29 18:58:25;;;;;;;0.00;0.00;;;;;;;;;;5112812;28;20020;-48
2021/01/29 19:00:51;;;;;;;0.15;0.15;;;;;;;;;;5113791;28;20051;-53
2021/01/29 19:03:17;;;;;;;0.30;0.30;;;;;;;;;;5110978;28;20470;-49
2021/01/29 19:05:44;;;;;;;0.00;0.00;;;;;;;;;;5111600;28;20043;-50
2021/01/29 19:08:10;;;;;;;0.00;0.00;;;;;;;;;;5108468;28;20023;-46
2021/01/29 19:10:36;;;;;;;0.00;0.00;;;;;;;;;;5111682;28;20040;-47
2021/01/29 19:13:04;;;;;;;0.00;0.00;;;;;;;;;;5109463;28;20012;-50
2021/01/29 19:15:30;;;;;;;0.00;0.00;;;;;;;;;;5109081;28;20059;-52
2021/01/29 19:17:57;;;;;;;0.03;0.03;;;;;;;;;;5112087;28;20035;-47
2021/01/29 19:20:25;;;;;;;0.00;0.00;;;;;;;;;;5112196;28;20084;-52
2021/01/29 19:22:51;;;;;;;0.05;0.05;;;;;;;;;;5109881;28;20103;-53
2021/01/29 19:25:18;;;;;;;0.10;0.10;;;;;;;;;;5111335;28;20028;-53
2021/01/29 19:27:44;;;;;;;0.00;0.00;;;;;;;;;;5110853;28;20803;-52
2021/01/29 19:30:13;;;;;;;0.60;0.60;;;;;;;;;;5092786;28;20075;-51
2021/01/29 19:32:39;;;;;;;0.00;0.00;;;;;;;;;;5111852;28;20024;-52
2021/01/29 19:35:06;;;;;;;1.08;0.60;;;;;;;;;;5111900;28;20068;-55
2021/01/29 19:37:32;;;;;;;1.08;0.45;;;;;;;;;;5110699;28;20027;-49
2021/01/29 19:39:58;;;;;;;2.28;2.08;;;;;;;;;;5110689;28;20523;-55
2021/01/29 19:42:26;;;;;;;0.10;0.10;;;;;;;;;;5108666;27;20016;-51
2021/01/29 19:44:52;;;;;;;0.55;0.55;;;;;;;;;;5109243;27;20031;-57
2021/01/29 19:47:19;;;;;;;0.10;0.10;;;;;;;;;;5106471;28;20063;-55
2021/01/29 19:49:45;;;;;;;0.08;0.08;;;;;;;;;;5108098;28;20040;-56
2021/01/29 19:52:11;;;;;;;0.57;0.57;;;;;;;;;;5091552;28;20034;-57
2021/01/29 19:54:38;;;;;;;3.40;2.00;;;;;;;;;;5110251;28;20499;-50
2021/01/29 19:57:11;;;;;;;0.22;0.22;;;;;;;;;;5109870;28;20027;-56
2021/01/29 19:59:42;;;;;;;0.30;0.30;;;;;;;;;;5111353;28;20028;-51
2021/01/29 20:02:08;;;;;;;0.82;0.20;;;;;;;;;;5111129;28;20059;-54
2021/01/29 20:04:35;;;;;;;8.40;2.05;;;;;;;;;;5110552;28;20020;-50
2021/01/29 20:07:06;;;;;;;22.38;1.85;;;;;;;;;;5109999;28;20039;-55
2021/01/29 20:09:32;;;;;;;8.40;1.05;;;;;;;;;;5110368;27;20035;-56
2021/01/29 20:11:58;;;;;;;0.20;0.20;;;;;;;;;;5092259;28;20039;-52
2021/01/29 20:14:24;;;;;;;1.08;0.30;;;;;;;;;;5110911;27;20019;-53
2021/01/29 20:16:50;;;;;;;0.00;0.00;;;;;;;;;;5110668;28;20393;-54
2021/01/29 20:19:16;;;;;;;0.00;0.00;;;;;;;;;;5110261;28;20028;-54
2021/01/29 20:21:42;;;;;;;0.00;0.00;;;;;;;;;;5093089;28;20020;-63
2021/01/29 20:24:09;;;;;;;2.55;0.93;;;;;;;;;;5108994;28;20020;-55
2021/01/29 20:26:35;;;;;;;0.93;0.50;;;;;;;;;;5110505;28;20400;-52
2021/01/29 20:29:01;;;;;;;0.00;0.00;;;;;;;;;;5109139;27;20490;-52
2021/01/29 20:31:27;;;;;;;3.67;0.35;;;;;;;;;;5109182;27;20039;-54
2021/01/29 20:33:53;;;;;;;0.00;0.00;;;;;;;;;;5110030;27;20030;-54
2021/01/29 20:36:19;;;;;;;0.00;0.00;;;;;;;;;;5109471;27;20023;-51
2021/01/29 20:38:45;;;;;;;0.10;0.10;;;;;;;;;;5111256;28;20098;-57
2021/01/29 20:41:13;;;;;;;0.80;0.43;;;;;;;;;;5110163;27;20458;-56
2021/01/29 20:43:39;;;;;;;0.80;0.80;;;;;;;;;;5110488;28;20030;-51
2021/01/29 20:46:06;;;;;;;0.10;0.10;;;;;;;;;;5110683;28;20049;-50
2021/01/29 20:48:33;;;;;;;0.00;0.00;;;;;;;;;;5110065;27;20032;-52
2021/01/29 20:51:00;;;;;;;0.10;0.10;;;;;;;;;;5109749;27;20119;-53
2021/01/29 20:53:26;;;;;;;0.73;0.73;;;;;;;;;;5110503;28;20020;-54
2021/01/29 20:55:53;;;;;;;0.00;0.00;;;;;;;;;;5108437;27;20489;-59
2021/01/29 20:58:19;;;;;;;0.10;0.08;;;;;;;;;;5080904;28;20460;-55
2021/01/29 21:00:46;;;;;;;7.13;1.02;;;;;;;;;;5109891;27;20095;-55
2021/01/29 21:03:13;;;;;;;1.10;0.20;;;;;;;;;;5107231;28;20044;-55
2021/01/29 21:05:39;;;;;;;0.00;0.00;;;;;;;;;;5111168;28;20036;-58
2021/01/29 21:08:06;;;;;;;17.08;2.20;;;;;;;;;;5113873;27;20035;-55
2021/01/29 21:10:34;;;;;;;2.65;0.70;;;;;;;;;;5116009;27;20062;-50
2021/01/29 21:13:00;;;;;;;7.57;0.90;;;;;;;;;;5111011;28;20052;-53
2021/01/29 21:15:28;;;;;;;0.10;0.10;;;;;;;;;;5111874;28;20496;-55